Time;durP1;ratioP1;P1;durP2;ratioP2;P2;SDS_P1;SDS_P2;PMS_P1;PMS_P2;Temp;Humidity;BMP_temperature;BMP_pressure;BME280_temperature;BME280_humidity;BME280_pressure;Samples;Min_cycle;Max_cycle;Signal;HPM_P1;HPM_P2
2022/10/04 00:00:27;;;;;;;16.53;2.73;;;;;;;7.03;100.00;96564.63;4982576;28;21317;-73
2022/10/04 00:03:01;;;;;;;6.43;2.22;;;;;;;7.05;100.00;96564.59;4986998;28;21205;-73
2022/10/04 00:05:30;;;;;;;11.43;2.42;;;;;;;7.03;100.00;96564.63;4976667;28;20788;-73
2022/10/04 00:08:01;;;;;;;32.10;3.03;;;;;;;6.68;100.00;96559.91;4987409;28;20775;-73
2022/10/04 00:10:31;;;;;;;25.67;2.95;;;;;;;6.58;100.00;96553.41;4976723;28;20669;-73
2022/10/04 00:13:02;;;;;;;12.77;2.67;;;;;;;6.77;100.00;96549.28;4985977;28;20693;-73
2022/10/04 00:15:31;;;;;;;7.60;2.33;;;;;;;6.78;100.00;96545.81;4987373;28;20755;-73
2022/10/04 00:18:14;;;;;;;16.02;2.78;;;;;;;6.77;100.00;96550.13;4982551;28;20823;-73
2022/10/04 00:20:59;;;;;;;33.78;2.70;;;;;;;6.76;100.00;96555.34;4978786;28;20669;-73
2022/10/04 00:23:29;;;;;;;19.83;2.08;;;;;;;6.79;100.00;96550.91;4976100;28;20648;-73
2022/10/04 00:25:58;;;;;;;4.13;2.47;;;;;;;6.85;100.00;96549.84;4979430;28;20734;-73
2022/10/04 00:28:44;;;;;;;4.78;2.42;;;;;;;6.89;100.00;96550.56;4974644;28;24835;-73
2022/10/04 00:31:18;;;;;;;17.00;2.85;;;;;;;6.75;100.00;96548.50;4982108;28;21384;-73
2022/10/04 00:33:46;;;;;;;13.95;2.60;;;;;;;6.92;100.00;96548.72;4988232;28;20697;-73
2022/10/04 00:36:51;;;;;;;27.10;2.60;;;;;;;6.94;100.00;96544.38;4980231;28;20843;-73
2022/10/04 00:39:36;;;;;;;20.25;2.28;;;;;;;6.87;100.00;96539.50;4989129;28;21455;-74
2022/10/04 00:42:17;;;;;;;27.27;3.30;;;;;;;6.79;100.00;96537.22;4984621;28;20717;-73
2022/10/04 00:44:51;;;;;;;45.60;3.10;;;;;;;6.49;100.00;96534.81;4978739;28;21027;-73
2022/10/04 00:47:26;;;;;;;27.05;2.90;;;;;;;6.55;100.00;96534.56;4982886;28;20639;-73
2022/10/04 00:50:00;;;;;;;9.40;2.60;;;;;;;6.51;100.00;96530.44;4990056;28;20995;-72
2022/10/04 00:52:32;;;;;;;4.13;2.22;;;;;;;6.55;100.00;96528.59;4977670;28;20770;-73
2022/10/04 00:55:04;;;;;;;13.82;3.00;;;;;;;6.32;100.00;96533.69;4980021;28;20693;-72
2022/10/04 00:57:38;;;;;;;33.07;3.30;;;;;;;6.34;100.00;96521.59;4987912;28;21202;-73
2022/10/04 01:00:12;;;;;;;47.28;3.67;;;;;;;5.95;100.00;96528.03;4984099;28;20720;-74
2022/10/04 01:02:51;;;;;;;10.45;2.30;;;;;;;6.07;100.00;96526.78;4985267;28;20744;-73
2022/10/04 01:05:22;;;;;;;12.02;2.47;;;;;;;6.22;100.00;96522.88;4984680;28;24839;-74
2022/10/04 01:07:54;;;;;;;28.90;3.17;;;;;;;6.10;100.00;96513.00;4985258;28;24958;-74
2022/10/04 01:10:25;;;;;;;11.55;2.65;;;;;;;6.17;100.00;96511.91;4985431;28;24440;-73
2022/10/04 01:12:56;;;;;;;15.77;2.22;;;;;;;6.22;100.00;96505.69;4975778;28;25097;-73
2022/10/04 01:15:31;;;;;;;2.70;2.15;;;;;;;6.26;100.00;96503.88;4985525;28;24465;-73
2022/10/04 01:18:10;;;;;;;4.85;2.83;;;;;;;6.28;100.00;96502.09;4985790;28;24436;-73
2022/10/04 01:20:40;;;;;;;3.30;2.20;;;;;;;6.13;100.00;96511.16;4973963;28;24443;-73
2022/10/04 01:23:09;;;;;;;13.75;2.60;;;;;;;5.93;100.00;96511.84;4981157;28;20782;-71
2022/10/04 01:25:48;;;;;;;4.80;2.38;;;;;;;6.10;100.00;96518.13;4984562;28;20771;-73
2022/10/04 01:28:15;;;;;;;3.80;2.20;;;;;;;6.24;100.00;96506.50;4989259;28;20810;-73
2022/10/04 01:30:43;;;;;;;10.07;2.42;;;;;;;6.21;100.00;96508.34;4982426;28;24432;-72
2022/10/04 01:33:11;;;;;;;18.58;2.22;;;;;;;6.10;100.00;96503.53;4989544;28;24799;-74
2022/10/04 01:35:38;;;;;;;25.63;2.28;;;;;;;6.13;100.00;96502.63;4988487;28;24462;-73
2022/10/04 01:38:06;;;;;;;8.35;2.10;;;;;;;6.18;100.00;96503.28;4980074;28;20779;-74
2022/10/04 01:40:36;;;;;;;35.88;2.80;;;;;;;5.94;100.00;96498.06;4987925;28;24496;-74
2022/10/04 01:43:08;;;;;;;32.38;2.50;;;;;;;5.92;100.00;96499.84;4987028;28;20853;-73
2022/10/04 01:45:40;;;;;;;17.17;2.38;;;;;;;5.73;100.00;96489.28;4987318;28;24442;-74
2022/10/04 01:48:12;;;;;;;7.30;1.92;;;;;;;5.82;100.00;96488.16;4970224;28;25014;-73
2022/10/04 01:50:44;;;;;;;18.63;2.58;;;;;;;5.77;100.00;96480.59;4986080;28;24448;-73
2022/10/04 01:53:15;;;;;;;2.17;1.73;;;;;;;5.92;100.00;96483.56;4989429;28;24791;-72
2022/10/04 01:55:47;;;;;;;22.67;2.85;;;;;;;5.94;100.00;96484.38;4983496;28;24457;-73
2022/10/04 01:58:19;;;;;;;17.77;2.78;;;;;;;5.79;100.00;96481.41;4990197;28;24795;-73
2022/10/04 02:00:51;;;;;;;9.80;2.70;;;;;;;5.83;100.00;96477.00;4985167;28;25002;-73
2022/10/04 02:03:21;;;;;;;16.55;2.00;;;;;;;5.85;100.00;96469.22;4988745;28;20792;-73
2022/10/04 02:05:53;;;;;;;39.47;2.47;;;;;;;5.69;100.00;96476.59;4981920;28;20773;-73
2022/10/04 02:08:26;;;;;;;23.35;2.72;;;;;;;5.67;100.00;96473.22;4992360;28;24437;-73
2022/10/04 02:10:55;;;;;;;57.47;3.22;;;;;;;5.51;100.00;96466.00;4984925;28;24789;-73
2022/10/04 02:13:23;;;;;;;9.75;2.20;;;;;;;5.77;100.00;96466.91;4991365;28;24487;-73
2022/10/04 02:15:50;;;;;;;32.70;2.47;;;;;;;5.75;100.00;96464.41;4988728;28;24461;-73
2022/10/04 02:18:19;;;;;;;8.93;2.40;;;;;;;5.79;100.00;96470.28;4990407;28;24441;-74
2022/10/04 02:20:48;;;;;;;2.50;2.00;;;;;;;5.88;100.00;96464.81;4989558;28;20816;-73
2022/10/04 02:23:18;;;;;;;7.20;2.05;;;;;;;5.86;100.00;96461.47;4988972;28;20787;-73
2022/10/04 02:25:44;;;;;;;1.83;1.65;;;;;;;5.85;100.00;96459.78;4984701;28;20779;-74
2022/10/04 02:28:14;;;;;;;5.63;1.88;;;;;;;5.96;100.00;96457.72;4982387;28;24445;-73
2022/10/04 02:32:56;;;;;;;4.88;1.77;;;;;;;5.92;100.00;96450.13;4984442;28;24432;-74
2022/10/04 02:33:30;;;;;;;24.52;2.42;;;;;;;5.76;100.00;96445.50;4981660;28;20855;-73
2022/10/04 02:35:58;;;;;;;18.80;2.00;;;;;;;5.80;100.00;96448.81;4988234;28;24460;-74
2022/10/04 02:38:30;;;;;;;24.92;2.20;;;;;;;5.87;100.00;96452.03;4979476;28;24520;-73
2022/10/04 02:41:02;;;;;;;29.50;2.30;;;;;;;5.69;100.00;96440.63;4988784;28;24440;-74
2022/10/04 02:43:39;;;;;;;13.57;1.75;;;;;;;5.74;100.00;96447.28;4979234;28;24503;-72
2022/10/04 02:46:11;;;;;;;21.73;2.20;;;;;;;5.68;100.00;96444.09;4983325;28;24429;-74
2022/10/04 02:48:44;;;;;;;49.88;2.80;;;;;;;5.48;100.00;96445.53;4974912;28;20770;-74
2022/10/04 02:51:24;;;;;;;13.60;2.08;;;;;;;5.46;100.00;96449.06;4983545;28;20811;-73
2022/10/04 02:54:00;;;;;;;7.97;2.10;;;;;;;5.48;100.00;96440.41;4978413;28;21147;-74
2022/10/04 02:56:26;;;;;;;7.30;1.95;;;;;;;5.61;100.00;96437.47;4983286;28;24460;-73
2022/10/04 02:58:55;;;;;;;5.72;1.98;;;;;;;5.59;100.00;96438.34;4987140;28;24437;-74
2022/10/04 03:01:26;;;;;;;40.78;2.40;;;;;;;5.39;100.00;96437.31;4971705;28;24456;-74
2022/10/04 03:03:54;;;;;;;19.23;2.00;;;;;;;5.40;100.00;96434.69;4975380;28;24445;-74
2022/10/04 03:06:23;;;;;;;48.85;2.78;;;;;;;5.25;100.00;96442.88;4974983;28;24991;-72
2022/10/04 03:08:53;;;;;;;16.53;2.00;;;;;;;5.34;100.00;96437.47;4982379;28;24527;-73
2022/10/04 03:11:22;;;;;;;15.20;2.00;;;;;;;5.26;100.00;96439.41;4981965;28;24476;-74
2022/10/04 03:13:52;;;;;;;7.10;2.10;;;;;;;5.24;100.00;96443.75;4976284;28;24437;-72
2022/10/04 03:16:20;;;;;;;19.75;2.28;;;;;;;5.34;100.00;96437.47;4988987;28;25026;-74
2022/10/04 03:18:49;;;;;;;3.08;2.00;;;;;;;5.46;100.00;96443.94;4986962;28;24439;-73
2022/10/04 03:21:18;;;;;;;30.10;2.93;;;;;;;5.48;100.00;96445.53;4989359;28;24521;-74
2022/10/04 03:23:46;;;;;;;6.15;1.80;;;;;;;5.54;100.00;96440.22;4985285;28;25326;-73
2022/10/04 03:26:24;;;;;;;4.22;2.10;;;;;;;5.66;100.00;96446.69;4987450;28;24461;-72
2022/10/04 03:28:51;;;;;;;2.08;1.85;;;;;;;5.68;100.00;96441.50;4980703;28;24541;-74
2022/10/04 03:31:18;;;;;;;6.03;1.75;;;;;;;5.66;100.00;96441.53;4981911;28;24810;-73
2022/10/04 03:33:47;;;;;;;44.22;3.60;;;;;;;5.18;100.00;96438.81;4983222;28;24464;-74
2022/10/04 03:36:17;;;;;;;16.92;2.65;;;;;;;5.10;100.00;96442.44;4973785;28;24465;-73
2022/10/04 03:38:44;;;;;;;20.92;2.70;;;;;;;5.07;100.00;96432.25;4985965;28;24545;-72
2022/10/04 03:41:13;;;;;;;3.35;2.13;;;;;;;5.16;100.00;96423.47;4986437;28;24437;-73
2022/10/04 03:43:44;;;;;;;6.07;2.17;;;;;;;5.12;100.00;96429.59;4985619;28;24441;-73
2022/10/04 03:46:14;;;;;;;2.47;2.13;;;;;;;5.27;100.00;96425.69;4985599;28;24436;-73
2022/10/04 03:48:44;;;;;;;4.35;1.90;;;;;;;5.44;100.00;96425.97;4986264;28;25053;-73
2022/10/04 03:51:16;;;;;;;2.03;1.83;;;;;;;5.57;100.00;96429.84;4979106;28;25020;-73
2022/10/04 03:53:45;;;;;;;3.38;1.70;;;;;;;5.63;100.00;96428.78;4986486;28;24437;-72
2022/10/04 03:56:15;;;;;;;4.50;1.73;;;;;;;5.56;100.00;96423.03;4986133;28;24553;-73
2022/10/04 03:58:43;;;;;;;10.75;2.55;;;;;;;5.27;100.00;96418.00;4986742;28;24792;-72
2022/10/04 04:01:20;;;;;;;5.60;2.08;;;;;;;5.30;100.00;96421.31;4986894;28;24436;-73
2022/10/04 04:04:02;;;;;;;6.03;2.47;;;;;;;5.29;100.00;96419.59;4971088;28;24824;-73
2022/10/04 04:06:40;;;;;;;19.35;2.15;;;;;;;5.41;100.00;96423.50;4983394;28;20803;-73
2022/10/04 04:09:08;;;;;;;8.25;2.03;;;;;;;5.28;100.00;96423.06;4983235;28;24464;-73
2022/10/04 04:11:36;;;;;;;3.13;1.90;;;;;;;5.33;100.00;96418.63;4977190;28;24440;-73
2022/10/04 04:14:08;;;;;;;3.80;1.80;;;;;;;5.41;100.00;96422.66;4985869;28;24983;-72
2022/10/04 04:16:37;;;;;;;2.55;1.60;;;;;;;5.34;100.00;96417.75;4968288;28;24557;-73
2022/10/04 04:19:11;;;;;;;4.00;1.65;;;;;;;5.25;100.00;96422.31;4984521;28;24491;-73
2022/10/04 04:21:40;;;;;;;10.73;1.95;;;;;;;5.24;100.00;96418.09;4978024;28;24428;-72
2022/10/04 04:24:17;;;;;;;1.77;1.60;;;;;;;5.24;100.00;96415.50;4985766;28;24800;-72
2022/10/04 04:26:50;;;;;;;5.20;2.22;;;;;;;5.24;100.00;96418.09;4979880;28;24444;-72
2022/10/04 04:29:22;;;;;;;2.33;1.75;;;;;;;5.28;100.00;96427.38;4977778;28;25058;-72
2022/10/04 04:31:52;;;;;;;2.15;1.63;;;;;;;5.36;100.00;96430.53;4972532;28;24503;-72
2022/10/04 04:34:23;;;;;;;2.78;1.75;;;;;;;5.42;100.00;96416.66;4984784;28;24534;-72
2022/10/04 04:36:57;;;;;;;3.38;1.70;;;;;;;5.25;100.00;96428.28;4978166;28;24489;-72
2022/10/04 04:39:40;;;;;;;5.38;1.67;;;;;;;5.15;100.00;96424.31;4976323;28;24974;-72
2022/10/04 04:42:15;;;;;;;2.35;1.58;;;;;;;5.13;100.00;96422.72;4989162;28;24527;-72
2022/10/04 04:44:48;;;;;;;1.77;1.67;;;;;;;5.20;100.00;96419.06;4974352;28;24441;-73
2022/10/04 04:47:33;;;;;;;2.80;1.80;;;;;;;5.23;100.00;96419.81;4984640;28;24436;-72
2022/10/04 04:50:06;;;;;;;2.50;1.95;;;;;;;5.18;100.00;96415.69;4985681;28;24445;-72
2022/10/04 04:52:35;;;;;;;3.90;2.85;;;;;;;5.14;100.00;96424.38;4977678;28;24428;-73
2022/10/04 04:55:03;;;;;;;8.52;6.75;;;;;;;5.11;100.00;96417.59;4988351;28;24985;-72
2022/10/04 04:57:29;;;;;;;8.95;7.53;;;;;;;5.12;100.00;96424.44;4982701;28;25098;-72
2022/10/04 04:59:59;;;;;;;17.08;5.05;;;;;;;5.02;100.00;96425.59;4987370;28;24429;-72
2022/10/04 05:02:31;;;;;;;5.60;3.80;;;;;;;5.00;100.00;96420.50;4977409;28;24444;-72
2022/10/04 05:05:27;;;;;;;5.20;3.03;;;;;;;5.12;100.00;96421.88;4976068;28;25570;-74
2022/10/04 05:08:16;;;;;;;2.30;1.70;;;;;;;5.20;100.00;96425.03;4924032;28;24805;-74
2022/10/04 05:10:46;;;;;;;5.40;1.70;;;;;;;5.23;100.00;96424.13;4967513;28;24446;-73
2022/10/04 05:13:15;;;;;;;4.93;1.73;;;;;;;5.17;100.00;96419.16;4986643;28;24436;-73
2022/10/04 05:15:42;;;;;;;2.50;1.90;;;;;;;5.16;100.00;96414.91;4982203;28;24444;-72
2022/10/04 05:18:28;;;;;;;2.65;1.80;;;;;;;5.17;100.00;96414.88;4986887;28;24447;-73
2022/10/04 05:20:57;;;;;;;2.73;2.13;;;;;;;5.11;100.00;96420.19;4982879;28;24440;-73
2022/10/04 05:23:25;;;;;;;5.10;4.22;;;;;;;5.24;100.00;96420.66;4987403;28;24441;-73
2022/10/04 05:25:52;;;;;;;4.45;3.13;;;;;;;5.24;100.00;96424.06;4983564;28;24444;-73
2022/10/04 05:28:18;;;;;;;5.65;3.08;;;;;;;5.24;100.00;96436.06;4981118;28;24448;-73
2022/10/04 05:30:53;;;;;;;5.50;3.72;;;;;;;5.24;100.00;96423.22;4984158;28;24436;-73
2022/10/04 05:33:25;;;;;;;5.10;3.20;;;;;;;5.30;100.00;96425.56;4979302;28;24804;-73
2022/10/04 05:36:10;;;;;;;2.50;2.30;;;;;;;5.33;100.00;96430.63;4967900;28;25062;-73
2022/10/04 05:38:45;;;;;;;4.43;2.10;;;;;;;5.37;100.00;96433.94;4973532;28;24534;-73
2022/10/04 05:41:25;;;;;;;4.40;3.10;;;;;;;5.28;100.00;96437.66;4972906;28;24803;-73
2022/10/04 05:43:52;;;;;;;3.27;2.73;;;;;;;5.27;100.00;96435.97;4987155;28;24436;-73
2022/10/04 05:46:25;;;;;;;2.80;2.25;;;;;;;5.37;100.00;96432.19;4973655;28;24471;-73
2022/10/04 05:48:58;;;;;;;7.65;5.10;;;;;;;5.45;100.00;96435.38;4979927;28;24509;-73
2022/10/04 05:51:29;;;;;;;5.63;4.63;;;;;;;5.44;100.00;96438.81;4973141;28;24436;-74
2022/10/04 05:54:01;;;;;;;4.43;3.90;;;;;;;5.42;100.00;96439.78;4985034;28;24437;-74
2022/10/04 05:56:54;;;;;;;17.67;12.63;;;;;;;5.23;100.00;96442.94;4980639;28;24465;-74
2022/10/04 05:59:41;;;;;;;11.52;6.80;;;;;;;5.28;100.00;96441.03;4982051;28;24436;-74
2022/10/04 06:02:21;;;;;;;4.95;3.17;;;;;;;5.37;100.00;96437.34;4987226;28;24433;-74
2022/10/04 06:04:58;;;;;;;2.75;2.40;;;;;;;5.33;100.00;96435.75;4975096;28;24438;-73
2022/10/04 06:07:30;;;;;;;8.18;2.30;;;;;;;5.40;100.00;96441.56;4981425;28;24436;-73
2022/10/04 06:10:19;;;;;;;18.23;2.30;;;;;;;5.05;100.00;96441.75;4985514;28;24433;-73
2022/10/04 06:12:55;;;;;;;3.28;2.15;;;;;;;4.97;100.00;96438.59;4976478;28;24459;-72
2022/10/04 06:15:44;;;;;;;11.95;2.10;;;;;;;4.82;100.00;96437.31;4983915;28;24449;-73
2022/10/04 06:18:27;;;;;;;5.00;2.00;;;;;;;4.83;100.00;96444.13;4990926;28;24947;-72
2022/10/04 06:21:09;;;;;;;6.80;2.30;;;;;;;4.92;100.00;96452.44;4978739;28;24443;-73
2022/10/04 06:23:44;;;;;;;2.80;1.63;;;;;;;4.96;100.00;96452.28;4979183;28;24445;-73
2022/10/04 06:26:17;;;;;;;2.80;1.85;;;;;;;5.18;100.00;96460.19;4981454;28;24450;-74
2022/10/04 06:28:49;;;;;;;3.22;2.10;;;;;;;5.39;100.00;96452.72;4984052;28;24807;-74
2022/10/04 06:31:46;;;;;;;1.80;1.70;;;;;;;5.48;100.00;96454.97;4990882;28;24441;-73
2022/10/04 06:34:38;;;;;;;1.80;1.63;;;;;;;5.60;100.00;96459.75;4974181;28;24438;-73
2022/10/04 06:37:32;;;;;;;2.80;2.10;;;;;;;5.47;100.00;96458.44;4940823;28;24449;-72
2022/10/04 06:40:25;;;;;;;6.38;2.45;;;;;;;5.43;100.00;96457.72;4987719;28;24472;-72
2022/10/04 06:43:10;;;;;;;2.53;2.13;;;;;;;5.18;100.00;96459.34;4975810;28;24528;-72
2022/10/04 06:45:51;;;;;;;3.65;2.00;;;;;;;5.24;100.00;96451.47;4984694;28;24564;-73
2022/10/04 06:48:39;;;;;;;3.72;2.22;;;;;;;5.34;100.00;96452.88;4979569;28;24433;-73
2022/10/04 06:51:19;;;;;;;6.03;2.00;;;;;;;5.28;100.00;96455.63;4969167;28;24979;-73
2022/10/04 06:53:59;;;;;;;7.53;3.50;;;;;;;5.28;100.00;96453.88;4976780;28;24440;-74
2022/10/04 06:56:54;;;;;;;3.60;2.70;;;;;;;5.40;100.00;96451.81;4971980;28;24448;-72
2022/10/04 06:59:43;;;;;;;7.05;2.30;;;;;;;5.14;100.00;96455.19;4975563;28;24520;-73
2022/10/04 07:02:16;;;;;;;5.55;2.40;;;;;;;5.10;100.00;96449.31;4982121;28;24982;-75
2022/10/04 07:04:49;;;;;;;3.63;2.33;;;;;;;5.22;100.00;96443.78;4979459;28;24527;-74
2022/10/04 07:07:25;;;;;;;9.98;2.00;;;;;;;5.27;100.00;96441.94;4980407;28;24974;-75
2022/10/04 07:09:57;;;;;;;2.30;1.58;;;;;;;5.25;100.00;96432.59;4979814;28;25014;-74
2022/10/04 07:12:24;;;;;;;1.70;1.60;;;;;;;5.18;100.00;96438.81;4980908;28;25005;-75
2022/10/04 07:14:55;;;;;;;6.10;1.90;;;;;;;5.18;100.00;96431.94;4982600;28;24452;-75
2022/10/04 07:17:27;;;;;;;2.93;1.70;;;;;;;5.08;100.00;96441.66;4980203;28;24457;-75
2022/10/04 07:19:55;;;;;;;3.90;1.92;;;;;;;5.19;100.00;96440.47;4973810;28;24446;-75
2022/10/04 07:22:29;;;;;;;2.00;1.80;;;;;;;5.37;100.00;96445.03;4986568;28;24441;-75
2022/10/04 07:25:14;;;;;;;2.33;2.00;;;;;;;5.52;100.00;96441.16;4974326;28;24433;-76
2022/10/04 07:29:19;;;;;;;4.00;2.20;;;;;;;5.64;100.00;96447.66;4973617;28;24433;-74
2022/10/04 07:30:44;;;;;;;3.05;2.10;;;;;;;5.69;100.00;96445.75;4970469;28;24751;-74
2022/10/04 07:33:16;;;;;;;2.60;1.90;;;;;;;5.78;100.00;96456.59;4980778;28;25035;-75
2022/10/04 07:35:47;;;;;;;4.60;2.58;;;;;;;5.89;100.00;96452.81;4981575;28;24437;-74
2022/10/04 07:38:19;;;;;;;4.85;2.92;;;;;;;5.93;100.00;96459.53;4990905;28;24452;-71
2022/10/04 07:41:03;;;;;;;3.70;2.80;;;;;;;6.02;100.00;96462.66;4982871;28;24449;-72
2022/10/04 07:43:33;;;;;;;4.07;2.40;;;;;;;6.28;100.00;96473.78;4976482;28;24431;-72
2022/10/04 07:46:11;;;;;;;2.57;2.20;;;;;;;6.48;100.00;96475.66;4983508;28;24887;-72
2022/10/04 07:48:40;;;;;;;3.28;2.13;;;;;;;6.55;100.00;96471.97;4985626;28;24432;-72
2022/10/04 07:51:18;;;;;;;4.07;2.55;;;;;;;6.59;100.00;96475.28;4981553;28;24436;-73
2022/10/04 07:53:51;;;;;;;4.82;3.03;;;;;;;6.70;100.00;96480.88;4984795;28;24998;-72
2022/10/04 07:56:26;;;;;;;3.30;2.70;;;;;;;6.76;100.00;96467.81;4983844;28;24448;-73
2022/10/04 07:59:14;;;;;;;3.47;2.63;;;;;;;6.76;100.00;96478.94;4985800;28;24500;-73
2022/10/04 08:01:53;;;;;;;4.63;2.38;;;;;;;6.72;100.00;96482.53;4983375;28;24436;-73
2022/10/04 08:04:32;;;;;;;3.58;2.35;;;;;;;6.92;100.00;96478.38;4980651;28;20661;-73
2022/10/04 08:07:01;;;;;;;2.80;2.17;;;;;;;7.02;100.00;96472.81;4989747;28;24444;-73
2022/10/04 08:09:43;;;;;;;5.38;1.95;;;;;;;7.14;100.00;96475.84;4990690;28;20781;-73
2022/10/04 08:12:21;;;;;;;4.00;2.50;;;;;;;7.13;100.00;96477.56;4985773;28;24431;-74
2022/10/04 08:14:55;;;;;;;2.92;2.17;;;;;;;7.24;100.00;96467.69;4990295;28;20693;-73
2022/10/04 08:17:40;;;;;;;3.63;2.28;;;;;;;7.50;100.00;96464.09;4989625;28;21400;-73
2022/10/04 08:20:23;;;;;;;5.00;2.47;;;;;;;7.79;100.00;96462.09;4977971;28;20721;-73
2022/10/04 08:23:01;;;;;;;5.40;2.92;;;;;;;8.12;100.00;96467.63;4986734;28;20671;-72
2022/10/04 08:25:35;;;;;;;3.95;2.75;;;;;;;8.27;100.00;96462.69;4971271;28;20758;-73
2022/10/04 08:31:08;;;;;;;3.67;2.75;;;;;;;8.44;100.00;96466.25;4987030;28;20815;-72
2022/10/04 08:34:10;;;;;;;4.43;2.60;;;;;;;8.70;100.00;96461.69;4973009;28;20719;-73
2022/10/04 08:36:53;;;;;;;4.85;2.97;;;;;;;8.70;100.00;96452.22;4958265;28;24827;-74
2022/10/04 08:39:33;;;;;;;3.42;2.70;;;;;;;8.74;100.00;96450.31;4980044;28;21108;-73
2022/10/04 08:42:32;;;;;;;3.35;2.70;;;;;;;8.99;100.00;96444.91;4985799;28;21113;-73
2022/10/04 08:45:33;;;;;;;6.68;2.90;;;;;;;9.15;100.00;96443.28;4981734;28;24496;-73
2022/10/04 08:48:37;;;;;;;3.55;2.55;;;;;;;9.54;100.00;96446.66;4983652;28;24436;-73
2022/10/04 08:51:46;;;;;;;4.65;2.40;;;;;;;9.47;100.00;96447.84;4979307;28;20776;-73
2022/10/04 08:54:45;;;;;;;4.60;2.58;;;;;;;9.49;100.00;96451.19;4985602;28;24440;-72
2022/10/04 08:57:48;;;;;;;7.40;2.83;;;;;;;9.70;100.00;96455.34;4985357;28;24453;-74
2022/10/04 09:00:25;;;;;;;3.22;2.53;;;;;;;10.11;100.00;96458.47;4982098;28;24982;-73
2022/10/04 09:03:26;;;;;;;4.88;2.80;;;;;;;10.48;100.00;96454.06;4985739;28;24429;-73
2022/10/04 09:06:19;;;;;;;5.78;3.00;;;;;;;10.83;100.00;96460.00;4972352;28;24440;-73
2022/10/04 09:09:28;;;;;;;6.47;3.17;;;;;;;11.15;100.00;96462.63;4979570;28;24437;-72
2022/10/04 09:12:14;;;;;;;5.75;3.08;;;;;;;11.53;100.00;96472.66;4966872;28;24433;-72
2022/10/04 09:15:07;;;;;;;7.93;3.53;;;;;;;11.62;100.00;96473.00;4988592;28;24421;-72
2022/10/04 09:17:43;;;;;;;5.78;3.03;;;;;;;11.70;100.00;96482.09;4983062;28;24539;-73
2022/10/04 09:20:21;;;;;;;4.10;2.80;;;;;;;12.01;100.00;96484.66;4987757;28;24433;-72
2022/10/04 09:22:56;;;;;;;4.88;3.05;;;;;;;12.33;100.00;96477.63;4985302;28;24974;-73
2022/10/04 09:25:47;;;;;;;4.55;2.97;;;;;;;12.49;100.00;96474.94;4985528;28;25282;-72
2022/10/04 09:28:37;;;;;;;4.93;2.72;;;;;;;12.55;100.00;96478.97;4968603;28;24524;-71
2022/10/04 09:31:32;;;;;;;4.00;2.40;;;;;;;12.59;100.00;96472.66;4979715;28;24440;-72
2022/10/04 09:34:41;;;;;;;6.88;2.80;;;;;;;12.51;100.00;96462.72;4980927;28;24441;-75
2022/10/04 09:37:41;;;;;;;9.23;2.92;;;;;;;12.70;100.00;96459.03;4980848;28;24994;-72
2022/10/04 09:40:36;;;;;;;7.03;3.10;;;;;;;12.79;100.00;96455.84;4983515;28;24440;-71
2022/10/04 09:43:23;;;;;;;7.35;2.67;;;;;;;12.71;100.00;96461.50;4980673;28;24425;-71
2022/10/04 09:46:10;;;;;;;4.20;2.40;;;;;;;12.81;100.00;96454.00;4982305;28;24441;-71
2022/10/04 09:48:44;;;;;;;4.90;2.53;;;;;;;12.45;100.00;96462.25;4978536;28;24496;-71
2022/10/04 09:51:30;;;;;;;6.32;3.10;;;;;;;12.55;100.00;96455.56;4988828;28;25006;-71
2022/10/04 09:54:11;;;;;;;4.85;2.90;;;;;;;12.74;100.00;96450.09;4978638;28;24434;-72
2022/10/04 09:57:15;;;;;;;6.78;2.70;;;;;;;12.84;100.00;96453.81;4980458;28;24440;-72
2022/10/04 10:00:04;;;;;;;9.38;2.78;;;;;;;12.93;100.00;96457.63;4949662;28;24437;-71
2022/10/04 10:02:58;;;;;;;5.45;2.75;;;;;;;12.96;100.00;96454.84;4986471;28;24834;-72
2022/10/04 10:05:35;;;;;;;8.27;2.97;;;;;;;13.12;100.00;96444.31;4981098;28;24440;-72
2022/10/04 10:08:13;;;;;;;4.60;2.78;;;;;;;13.42;100.00;96444.19;4981883;28;24425;-72
2022/10/04 10:14:15;;;;;;;5.82;3.08;;;;;;;13.99;100.00;96457.00;4971407;28;24429;-72
2022/10/04 10:16:52;;;;;;;6.43;2.80;;;;;;;14.27;100.00;96451.63;4981969;28;24791;-72
2022/10/04 10:19:45;;;;;;;7.75;2.75;;;;;;;14.27;100.00;96456.84;4986484;28;24540;-72
2022/10/04 10:22:30;;;;;;;5.53;2.65;;;;;;;14.62;100.00;96460.66;4987756;28;24803;-72
2022/10/04 10:25:25;;;;;;;6.40;2.58;;;;;;;14.86;100.00;96461.59;4986068;28;24441;-71
2022/10/04 10:28:06;;;;;;;7.67;2.90;;;;;;;14.82;100.00;96462.72;4982209;28;24429;-71
2022/10/04 10:30:50;;;;;;;5.25;2.70;;;;;;;14.79;100.00;96454.28;4982810;28;24464;-71
2022/10/04 10:34:00;;;;;;;4.10;2.45;;;;;;;14.93;100.00;96456.78;4985299;28;24540;-72
2022/10/04 10:36:49;;;;;;;4.60;2.55;;;;;;;14.87;100.00;96457.19;4984379;28;25009;-71
2022/10/04 10:39:52;;;;;;;5.10;2.90;;;;;;;14.70;100.00;96446.16;4985743;28;24460;-71
2022/10/04 10:42:50;;;;;;;6.82;2.50;;;;;;;14.84;100.00;96450.44;4981603;28;24441;-71
2022/10/04 10:45:26;;;;;;;3.50;2.13;;;;;;;15.13;99.00;96448.41;4937099;28;24458;-71
2022/10/04 10:48:00;;;;;;;4.00;2.30;;;;;;;14.95;97.54;96447.91;4988897;28;24439;-72
2022/10/04 10:51:02;;;;;;;4.50;2.20;;;;;;;15.14;99.27;96447.47;4982176;28;24537;-72
2022/10/04 10:53:55;;;;;;;4.03;2.33;;;;;;;15.31;96.50;96451.47;4974983;28;24441;-71
2022/10/04 10:56:35;;;;;;;3.08;2.10;;;;;;;15.12;95.42;96448.50;4960795;23;24531;-72
2022/10/04 10:59:27;;;;;;;5.85;2.33;;;;;;;15.18;93.79;96451.53;4996191;28;24459;-72
2022/10/04 11:02:15;;;;;;;4.13;2.20;;;;;;;14.97;96.42;96451.25;4988312;28;24525;-72
2022/10/04 11:04:53;;;;;;;3.60;2.10;;;;;;;14.78;95.95;96448.25;4990016;28;24439;-72
2022/10/04 11:07:48;;;;;;;4.30;2.35;;;;;;;14.82;98.41;96444.47;4976948;28;24840;-72
2022/10/04 11:10:48;;;;;;;6.65;2.33;;;;;;;15.09;100.00;96443.50;4973772;28;24441;-72
2022/10/04 11:13:48;;;;;;;3.70;2.00;;;;;;;15.25;94.57;96431.88;4962945;28;24441;-72
2022/10/04 11:17:08;;;;;;;3.17;2.00;;;;;;;15.51;94.47;96436.19;4971305;28;24537;-71
2022/10/04 11:20:12;;;;;;;4.80;2.00;;;;;;;15.35;97.15;96431.22;4969651;28;24457;-72
2022/10/04 11:23:08;;;;;;;6.65;2.20;;;;;;;15.24;96.29;96440.66;4955234;28;24501;-72
2022/10/04 11:26:16;;;;;;;3.67;1.98;;;;;;;15.34;95.04;96429.56;4977028;28;24433;-72
2022/10/04 11:28:50;;;;;;;6.22;1.88;;;;;;;15.28;94.05;96420.41;4966271;28;25038;-72
2022/10/04 11:31:50;;;;;;;14.77;1.70;;;;;;;15.49;94.38;96425.84;4975359;28;25097;-72
2022/10/04 11:34:56;;;;;;;3.55;1.80;;;;;;;15.55;93.63;96417.59;4971310;28;24448;-71
2022/10/04 11:37:43;;;;;;;6.05;2.03;;;;;;;15.51;96.54;96418.75;4926564;28;24887;-71
2022/10/04 11:40:25;;;;;;;7.80;3.30;;;;;;;15.41;94.88;96415.13;4973408;28;24534;-71
2022/10/04 11:43:08;;;;;;;7.17;3.20;;;;;;;15.33;95.25;96418.28;4977357;28;24598;-71
2022/10/04 11:45:56;;;;;;;6.15;2.75;;;;;;;15.43;95.96;96413.25;4980155;28;24519;-72
2022/10/04 11:48:37;;;;;;;7.10;2.08;;;;;;;15.42;95.26;96412.41;4966672;28;24445;-71
2022/10/04 11:51:25;;;;;;;6.40;3.10;;;;;;;15.37;96.21;96408.47;4976690;28;24806;-72
2022/10/04 11:54:26;;;;;;;4.72;2.00;;;;;;;15.41;97.46;96404.69;4969813;28;24543;-72
2022/10/04 11:57:13;;;;;;;3.83;1.92;;;;;;;15.45;94.55;96403.53;4976322;28;24445;-72
2022/10/04 11:59:49;;;;;;;3.58;2.10;;;;;;;15.57;95.98;96407.84;4959486;28;24485;-72
2022/10/04 12:02:46;;;;;;;4.35;1.90;;;;;;;15.61;96.82;96403.25;4972196;28;25024;-72
2022/10/04 12:05:48;;;;;;;6.55;2.22;;;;;;;15.55;96.47;96396.69;4972443;28;24994;-71
2022/10/04 12:08:23;;;;;;;2.65;1.95;;;;;;;15.59;99.05;96398.13;4972322;28;24796;-71
2022/10/04 12:11:16;;;;;;;3.70;1.88;;;;;;;15.71;98.29;96399.06;4973766;28;24433;-71
2022/10/04 12:13:58;;;;;;;3.95;1.95;;;;;;;15.67;97.32;96390.59;4969037;28;24436;-71
2022/10/04 12:16:46;;;;;;;5.50;2.20;;;;;;;15.81;99.38;96391.38;4960098;28;24713;-71
2022/10/04 12:19:58;;;;;;;3.33;1.47;;;;;;;15.99;95.39;96383.97;4967636;28;24462;-71
2022/10/04 12:22:52;;;;;;;4.05;1.88;;;;;;;16.09;94.72;96391.00;4879768;29;25004;-71
2022/10/04 12:25:45;;;;;;;4.20;1.90;;;;;;;16.04;92.30;96390.50;4887323;29;25040;-71
2022/10/04 12:28:30;;;;;;;3.97;1.77;;;;;;;16.09;94.11;96385.78;4956930;28;24975;-71
2022/10/04 12:31:21;;;;;;;4.50;1.80;;;;;;;16.06;95.70;96388.63;4967814;28;24843;-71